sensor_id;sensor_type;location;lat;lon;timestamp;P1;durP1;ratioP1;P2;durP2;ratioP2
60432;SDS011;46286;48.098;11.590;2022-09-09T00:00:53;4.50;;;2.50;;
60432;SDS011;46286;48.098;11.590;2022-09-09T00:03:45;6.13;;;2.70;;
60432;SDS011;46286;48.098;11.590;2022-09-09T00:06:23;9.43;;;3.45;;
60432;SDS011;46286;48.098;11.590;2022-09-09T00:09:11;10.48;;;2.65;;
60432;SDS011;46286;48.098;11.590;2022-09-09T00:17:32;5.68;;;2.70;;
60432;SDS011;46286;48.098;11.590;2022-09-09T00:20:12;8.85;;;2.88;;
60432;SDS011;46286;48.098;11.590;2022-09-09T00:22:53;3.78;;;2.55;;
60432;SDS011;46286;48.098;11.590;2022-09-09T00:31:33;5.72;;;2.78;;
60432;SDS011;46286;48.098;11.590;2022-09-09T00:34:00;4.90;;;2.40;;
60432;SDS011;46286;48.098;11.590;2022-09-09T00:36:35;5.45;;;3.00;;
60432;SDS011;46286;48.098;11.590;2022-09-09T00:39:02;4.20;;;2.70;;
60432;SDS011;46286;48.098;11.590;2022-09-09T00:44:02;6.78;;;2.80;;
60432;SDS011;46286;48.098;11.590;2022-09-09T00:46:48;5.75;;;2.75;;
60432;SDS011;46286;48.098;11.590;2022-09-09T00:49:37;7.72;;;3.28;;
60432;SDS011;46286;48.098;11.590;2022-09-09T00:57:33;4.68;;;2.47;;
60432;SDS011;46286;48.098;11.590;2022-09-09T01:03:02;5.25;;;2.63;;
60432;SDS011;46286;48.098;11.590;2022-09-09T01:05:36;7.28;;;2.80;;
60432;SDS011;46286;48.098;11.590;2022-09-09T01:08:05;8.38;;;2.67;;
60432;SDS011;46286;48.098;11.590;2022-09-09T01:10:50;6.18;;;2.40;;
60432;SDS011;46286;48.098;11.590;2022-09-09T01:13:25;9.20;;;2.70;;
60432;SDS011;46286;48.098;11.590;2022-09-09T01:15:56;4.53;;;2.70;;
60432;SDS011;46286;48.098;11.590;2022-09-09T01:18:28;6.32;;;3.10;;
60432;SDS011;46286;48.098;11.590;2022-09-09T01:21:27;5.13;;;2.60;;
60432;SDS011;46286;48.098;11.590;2022-09-09T01:26:22;4.38;;;2.50;;
60432;SDS011;46286;48.098;11.590;2022-09-09T01:28:53;6.53;;;2.83;;
60432;SDS011;46286;48.098;11.590;2022-09-09T01:31:30;8.05;;;2.78;;
60432;SDS011;46286;48.098;11.590;2022-09-09T01:34:09;7.88;;;2.67;;
60432;SDS011;46286;48.098;11.590;2022-09-09T01:36:55;7.53;;;2.60;;
60432;SDS011;46286;48.098;11.590;2022-09-09T01:39:25;5.88;;;2.60;;
60432;SDS011;46286;48.098;11.590;2022-09-09T01:41:51;4.00;;;2.42;;
60432;SDS011;46286;48.098;11.590;2022-09-09T01:44:18;3.97;;;2.78;;
60432;SDS011;46286;48.098;11.590;2022-09-09T01:46:44;9.50;;;2.83;;
60432;SDS011;46286;48.098;11.590;2022-09-09T01:49:10;5.72;;;2.72;;
60432;SDS011;46286;48.098;11.590;2022-09-09T01:51:36;7.57;;;2.67;;
60432;SDS011;46286;48.098;11.590;2022-09-09T01:54:04;6.18;;;2.65;;
60432;SDS011;46286;48.098;11.590;2022-09-09T02:05:37;5.15;;;2.30;;
60432;SDS011;46286;48.098;11.590;2022-09-09T02:08:09;5.53;;;2.60;;
60432;SDS011;46286;48.098;11.590;2022-09-09T02:13:24;7.30;;;2.75;;
60432;SDS011;46286;48.098;11.590;2022-09-09T02:16:37;4.70;;;2.65;;
60432;SDS011;46286;48.098;11.590;2022-09-09T02:18:47;4.72;;;2.58;;
60432;SDS011;46286;48.098;11.590;2022-09-09T02:21:16;4.20;;;2.58;;
60432;SDS011;46286;48.098;11.590;2022-09-09T02:23:43;8.18;;;2.55;;
60432;SDS011;46286;48.098;11.590;2022-09-09T02:26:12;4.68;;;2.45;;
60432;SDS011;46286;48.098;11.590;2022-09-09T02:28:44;3.97;;;2.45;;
60432;SDS011;46286;48.098;11.590;2022-09-09T02:31:11;5.03;;;2.58;;
60432;SDS011;46286;48.098;11.590;2022-09-09T02:33:43;4.57;;;2.47;;
60432;SDS011;46286;48.098;11.590;2022-09-09T02:36:12;6.88;;;2.55;;
60432;SDS011;46286;48.098;11.590;2022-09-09T02:38:50;4.80;;;2.53;;
60432;SDS011;46286;48.098;11.590;2022-09-09T02:41:35;4.50;;;2.65;;
60432;SDS011;46286;48.098;11.590;2022-09-09T02:44:21;4.50;;;2.35;;
60432;SDS011;46286;48.098;11.590;2022-09-09T02:47:01;5.90;;;2.53;;
60432;SDS011;46286;48.098;11.590;2022-09-09T02:52:05;4.93;;;2.33;;
60432;SDS011;46286;48.098;11.590;2022-09-09T02:54:39;6.30;;;2.50;;
60432;SDS011;46286;48.098;11.590;2022-09-09T02:57:12;6.45;;;2.60;;
60432;SDS011;46286;48.098;11.590;2022-09-09T02:59:43;3.40;;;2.28;;
60432;SDS011;46286;48.098;11.590;2022-09-09T03:02:10;4.13;;;2.45;;
60432;SDS011;46286;48.098;11.590;2022-09-09T03:04:36;4.30;;;2.30;;
60432;SDS011;46286;48.098;11.590;2022-09-09T03:07:02;3.53;;;2.10;;
60432;SDS011;46286;48.098;11.590;2022-09-09T03:09:29;5.93;;;2.20;;
60432;SDS011;46286;48.098;11.590;2022-09-09T03:11:55;4.10;;;2.35;;
60432;SDS011;46286;48.098;11.590;2022-09-09T03:14:20;4.10;;;2.40;;
60432;SDS011;46286;48.098;11.590;2022-09-09T03:16:50;3.65;;;2.40;;
60432;SDS011;46286;48.098;11.590;2022-09-09T03:19:16;3.95;;;2.40;;
60432;SDS011;46286;48.098;11.590;2022-09-09T03:21:42;4.97;;;2.33;;
60432;SDS011;46286;48.098;11.590;2022-09-09T03:24:07;6.05;;;2.38;;
60432;SDS011;46286;48.098;11.590;2022-09-09T03:26:33;6.68;;;2.35;;
60432;SDS011;46286;48.098;11.590;2022-09-09T03:28:58;3.60;;;2.35;;
60432;SDS011;46286;48.098;11.590;2022-09-09T03:31:25;4.82;;;2.55;;
60432;SDS011;46286;48.098;11.590;2022-09-09T03:33:55;4.82;;;2.38;;
60432;SDS011;46286;48.098;11.590;2022-09-09T03:36:23;5.05;;;2.38;;
60432;SDS011;46286;48.098;11.590;2022-09-09T03:38:49;6.32;;;2.50;;
60432;SDS011;46286;48.098;11.590;2022-09-09T03:41:15;4.55;;;2.30;;
60432;SDS011;46286;48.098;11.590;2022-09-09T03:43:41;6.07;;;2.40;;
60432;SDS011;46286;48.098;11.590;2022-09-09T03:46:07;5.78;;;2.58;;
60432;SDS011;46286;48.098;11.590;2022-09-09T03:48:32;4.40;;;2.40;;
60432;SDS011;46286;48.098;11.590;2022-09-09T03:50:57;2.90;;;2.20;;
60432;SDS011;46286;48.098;11.590;2022-09-09T03:53:25;4.55;;;2.38;;
60432;SDS011;46286;48.098;11.590;2022-09-09T03:55:52;3.80;;;2.40;;
60432;SDS011;46286;48.098;11.590;2022-09-09T03:58:24;5.72;;;2.38;;
60432;SDS011;46286;48.098;11.590;2022-09-09T04:00:59;6.70;;;2.60;;
60432;SDS011;46286;48.098;11.590;2022-09-09T04:03:26;5.97;;;2.35;;
60432;SDS011;46286;48.098;11.590;2022-09-09T04:05:52;4.93;;;2.10;;
60432;SDS011;46286;48.098;11.590;2022-09-09T04:08:19;4.22;;;2.30;;
60432;SDS011;46286;48.098;11.590;2022-09-09T04:10:45;3.92;;;2.10;;
60432;SDS011;46286;48.098;11.590;2022-09-09T04:13:13;5.15;;;2.30;;
60432;SDS011;46286;48.098;11.590;2022-09-09T04:15:41;5.18;;;2.33;;
60432;SDS011;46286;48.098;11.590;2022-09-09T04:18:08;3.72;;;2.30;;
60432;SDS011;46286;48.098;11.590;2022-09-09T04:20:34;4.95;;;2.40;;
60432;SDS011;46286;48.098;11.590;2022-09-09T04:23:00;4.90;;;2.08;;
60432;SDS011;46286;48.098;11.590;2022-09-09T04:25:26;4.78;;;2.28;;
60432;SDS011;46286;48.098;11.590;2022-09-09T04:27:55;3.83;;;1.95;;
60432;SDS011;46286;48.098;11.590;2022-09-09T04:30:22;5.05;;;2.28;;
60432;SDS011;46286;48.098;11.590;2022-09-09T04:32:47;7.63;;;2.22;;
60432;SDS011;46286;48.098;11.590;2022-09-09T04:35:13;5.18;;;2.25;;
60432;SDS011;46286;48.098;11.590;2022-09-09T04:37:38;5.63;;;2.28;;
60432;SDS011;46286;48.098;11.590;2022-09-09T04:40:04;5.63;;;2.35;;
60432;SDS011;46286;48.098;11.590;2022-09-09T04:42:34;3.83;;;2.08;;
60432;SDS011;46286;48.098;11.590;2022-09-09T04:45:00;4.07;;;2.17;;
60432;SDS011;46286;48.098;11.590;2022-09-09T04:47:26;3.97;;;2.03;;
60432;SDS011;46286;48.098;11.590;2022-09-09T04:49:52;5.00;;;2.10;;
60432;SDS011;46286;48.098;11.590;2022-09-09T04:52:19;4.18;;;2.40;;
60432;SDS011;46286;48.098;11.590;2022-09-09T04:54:45;4.65;;;2.20;;
60432;SDS011;46286;48.098;11.590;2022-09-09T04:57:11;4.15;;;2.40;;
60432;SDS011;46286;48.098;11.590;2022-09-09T04:59:36;6.97;;;2.38;;
60432;SDS011;46286;48.098;11.590;2022-09-09T05:02:04;4.43;;;2.40;;
60432;SDS011;46286;48.098;11.590;2022-09-09T05:04:30;6.63;;;2.50;;
60432;SDS011;46286;48.098;11.590;2022-09-09T05:06:56;6.93;;;2.53;;
60432;SDS011;46286;48.098;11.590;2022-09-09T05:09:22;7.43;;;2.25;;
60432;SDS011;46286;48.098;11.590;2022-09-09T05:11:47;3.35;;;2.20;;
60432;SDS011;46286;48.098;11.590;2022-09-09T05:14:14;8.20;;;2.50;;
60432;SDS011;46286;48.098;11.590;2022-09-09T05:16:40;6.43;;;2.40;;
60432;SDS011;46286;48.098;11.590;2022-09-09T05:19:05;6.57;;;2.30;;
60432;SDS011;46286;48.098;11.590;2022-09-09T05:21:33;5.70;;;2.35;;
60432;SDS011;46286;48.098;11.590;2022-09-09T05:23:59;8.55;;;2.17;;
60432;SDS011;46286;48.098;11.590;2022-09-09T05:26:25;5.13;;;2.35;;
60432;SDS011;46286;48.098;11.590;2022-09-09T05:28:51;8.88;;;2.53;;
60432;SDS011;46286;48.098;11.590;2022-09-09T05:31:16;5.25;;;2.20;;
60432;SDS011;46286;48.098;11.590;2022-09-09T05:33:43;4.13;;;2.40;;
60432;SDS011;46286;48.098;11.590;2022-09-09T05:36:13;6.28;;;2.20;;
60432;SDS011;46286;48.098;11.590;2022-09-09T05:38:42;5.43;;;2.10;;
60432;SDS011;46286;48.098;11.590;2022-09-09T05:41:08;8.85;;;2.70;;
60432;SDS011;46286;48.098;11.590;2022-09-09T05:43:36;9.45;;;2.40;;
60432;SDS011;46286;48.098;11.590;2022-09-09T05:48:30;7.57;;;2.33;;
60432;SDS011;46286;48.098;11.590;2022-09-09T05:50:57;6.05;;;2.33;;
60432;SDS011;46286;48.098;11.590;2022-09-09T05:53:24;6.78;;;2.25;;
60432;SDS011;46286;48.098;11.590;2022-09-09T05:55:57;5.50;;;2.30;;
60432;SDS011;46286;48.098;11.590;2022-09-09T05:58:26;5.47;;;2.60;;
60432;SDS011;46286;48.098;11.590;2022-09-09T06:00:52;4.70;;;2.30;;
60432;SDS011;46286;48.098;11.590;2022-09-09T06:03:19;3.80;;;2.00;;
60432;SDS011;46286;48.098;11.590;2022-09-09T06:05:56;4.47;;;2.17;;
60432;SDS011;46286;48.098;11.590;2022-09-09T06:08:22;8.23;;;2.25;;
60432;SDS011;46286;48.098;11.590;2022-09-09T06:10:48;3.38;;;2.10;;
60432;SDS011;46286;48.098;11.590;2022-09-09T06:13:13;7.13;;;2.10;;
60432;SDS011;46286;48.098;11.590;2022-09-09T06:15:38;5.13;;;2.05;;
60432;SDS011;46286;48.098;11.590;2022-09-09T06:18:05;6.28;;;2.05;;
60432;SDS011;46286;48.098;11.590;2022-09-09T06:20:30;6.50;;;2.28;;
60432;SDS011;46286;48.098;11.590;2022-09-09T06:22:57;3.65;;;1.85;;
60432;SDS011;46286;48.098;11.590;2022-09-09T06:25:22;4.30;;;1.80;;
60432;SDS011;46286;48.098;11.590;2022-09-09T06:27:49;3.47;;;1.73;;
60432;SDS011;46286;48.098;11.590;2022-09-09T06:30:15;4.22;;;1.75;;
60432;SDS011;46286;48.098;11.590;2022-09-09T06:32:42;3.22;;;1.63;;
60432;SDS011;46286;48.098;11.590;2022-09-09T06:35:07;4.10;;;1.60;;
60432;SDS011;46286;48.098;11.590;2022-09-09T06:37:33;1.80;;;1.52;;
60432;SDS011;46286;48.098;11.590;2022-09-09T06:39:59;4.47;;;1.80;;
60432;SDS011;46286;48.098;11.590;2022-09-09T06:42:24;5.53;;;1.88;;
60432;SDS011;46286;48.098;11.590;2022-09-09T06:44:50;4.57;;;1.75;;
60432;SDS011;46286;48.098;11.590;2022-09-09T06:47:15;5.63;;;1.80;;
60432;SDS011;46286;48.098;11.590;2022-09-09T06:49:40;3.30;;;1.65;;
60432;SDS011;46286;48.098;11.590;2022-09-09T06:52:06;3.35;;;1.65;;
60432;SDS011;46286;48.098;11.590;2022-09-09T06:54:33;3.88;;;1.70;;
60432;SDS011;46286;48.098;11.590;2022-09-09T06:57:02;2.65;;;1.55;;
60432;SDS011;46286;48.098;11.590;2022-09-09T06:59:28;1.52;;;1.33;;
60432;SDS011;46286;48.098;11.590;2022-09-09T07:01:55;3.03;;;1.60;;
60432;SDS011;46286;48.098;11.590;2022-09-09T07:04:21;5.30;;;1.65;;
60432;SDS011;46286;48.098;11.590;2022-09-09T07:06:47;3.65;;;1.60;;
60432;SDS011;46286;48.098;11.590;2022-09-09T07:09:13;7.45;;;1.90;;
60432;SDS011;46286;48.098;11.590;2022-09-09T07:11:42;4.00;;;1.90;;
60432;SDS011;46286;48.098;11.590;2022-09-09T07:14:10;3.03;;;1.70;;
60432;SDS011;46286;48.098;11.590;2022-09-09T07:16:39;2.40;;;1.45;;
60432;SDS011;46286;48.098;11.590;2022-09-09T07:19:07;3.42;;;1.70;;
60432;SDS011;46286;48.098;11.590;2022-09-09T07:21:34;3.03;;;1.52;;
60432;SDS011;46286;48.098;11.590;2022-09-09T07:24:00;3.92;;;1.70;;
60432;SDS011;46286;48.098;11.590;2022-09-09T07:26:26;4.45;;;1.80;;
60432;SDS011;46286;48.098;11.590;2022-09-09T07:28:54;2.20;;;1.60;;
60432;SDS011;46286;48.098;11.590;2022-09-09T07:33:49;2.63;;;1.70;;
60432;SDS011;46286;48.098;11.590;2022-09-09T07:36:16;4.82;;;1.90;;
60432;SDS011;46286;48.098;11.590;2022-09-09T07:38:47;4.93;;;1.80;;
60432;SDS011;46286;48.098;11.590;2022-09-09T07:41:19;2.40;;;1.50;;
60432;SDS011;46286;48.098;11.590;2022-09-09T07:43:45;2.50;;;1.60;;
60432;SDS011;46286;48.098;11.590;2022-09-09T07:46:13;1.90;;;1.23;;
60432;SDS011;46286;48.098;11.590;2022-09-09T07:48:44;3.40;;;1.60;;
60432;SDS011;46286;48.098;11.590;2022-09-09T07:51:12;3.25;;;1.58;;
60432;SDS011;46286;48.098;11.590;2022-09-09T07:53:43;2.30;;;1.40;;
60432;SDS011;46286;48.098;11.590;2022-09-09T07:56:10;4.43;;;2.13;;
60432;SDS011;46286;48.098;11.590;2022-09-09T07:58:38;4.10;;;1.80;;
60432;SDS011;46286;48.098;11.590;2022-09-09T08:01:08;3.45;;;1.77;;
60432;SDS011;46286;48.098;11.590;2022-09-09T08:03:35;3.80;;;1.60;;
60432;SDS011;46286;48.098;11.590;2022-09-09T08:06:02;3.75;;;1.88;;
60432;SDS011;46286;48.098;11.590;2022-09-09T08:08:29;4.97;;;1.88;;
60432;SDS011;46286;48.098;11.590;2022-09-09T08:11:00;3.78;;;1.70;;
60432;SDS011;46286;48.098;11.590;2022-09-09T08:13:34;6.60;;;1.50;;
60432;SDS011;46286;48.098;11.590;2022-09-09T08:16:08;4.70;;;1.60;;
60432;SDS011;46286;48.098;11.590;2022-09-09T08:18:38;6.45;;;1.77;;
60432;SDS011;46286;48.098;11.590;2022-09-09T08:23:41;2.38;;;1.80;;
60432;SDS011;46286;48.098;11.590;2022-09-09T08:26:14;2.20;;;1.52;;
60432;SDS011;46286;48.098;11.590;2022-09-09T08:28:41;3.90;;;1.83;;
60432;SDS011;46286;48.098;11.590;2022-09-09T08:31:11;4.57;;;1.95;;
60432;SDS011;46286;48.098;11.590;2022-09-09T08:33:38;3.00;;;1.60;;
60432;SDS011;46286;48.098;11.590;2022-09-09T08:36:05;4.13;;;1.70;;
60432;SDS011;46286;48.098;11.590;2022-09-09T08:38:31;2.08;;;1.70;;
60432;SDS011;46286;48.098;11.590;2022-09-09T08:41:01;2.92;;;2.00;;
60432;SDS011;46286;48.098;11.590;2022-09-09T08:43:36;3.30;;;1.75;;
60432;SDS011;46286;48.098;11.590;2022-09-09T08:46:11;4.65;;;1.80;;
60432;SDS011;46286;48.098;11.590;2022-09-09T08:48:56;2.75;;;1.60;;
60432;SDS011;46286;48.098;11.590;2022-09-09T08:51:27;3.08;;;1.92;;
60432;SDS011;46286;48.098;11.590;2022-09-09T08:53:56;5.85;;;1.90;;
60432;SDS011;46286;48.098;11.590;2022-09-09T08:56:24;6.22;;;2.13;;
60432;SDS011;46286;48.098;11.590;2022-09-09T08:58:51;2.17;;;1.60;;
60432;SDS011;46286;48.098;11.590;2022-09-09T09:06:50;4.07;;;2.30;;
60432;SDS011;46286;48.098;11.590;2022-09-09T09:12:07;4.53;;;2.40;;
60432;SDS011;46286;48.098;11.590;2022-09-09T09:14:40;3.10;;;1.83;;
60432;SDS011;46286;48.098;11.590;2022-09-09T09:17:12;3.90;;;1.95;;
60432;SDS011;46286;48.098;11.590;2022-09-09T09:19:40;5.50;;;2.10;;
60432;SDS011;46286;48.098;11.590;2022-09-09T09:30:02;3.13;;;1.80;;
60432;SDS011;46286;48.098;11.590;2022-09-09T09:32:38;4.93;;;1.88;;
60432;SDS011;46286;48.098;11.590;2022-09-09T09:35:12;5.43;;;1.90;;
60432;SDS011;46286;48.098;11.590;2022-09-09T09:37:39;4.90;;;1.80;;
60432;SDS011;46286;48.098;11.590;2022-09-09T09:40:14;3.28;;;1.77;;
60432;SDS011;46286;48.098;11.590;2022-09-09T09:45:33;4.60;;;1.98;;
60432;SDS011;46286;48.098;11.590;2022-09-09T09:48:11;3.08;;;1.63;;
60432;SDS011;46286;48.098;11.590;2022-09-09T09:56:02;4.57;;;2.00;;
60432;SDS011;46286;48.098;11.590;2022-09-09T09:58:53;2.28;;;1.60;;
60432;SDS011;46286;48.098;11.590;2022-09-09T10:01:23;2.50;;;1.75;;
60432;SDS011;46286;48.098;11.590;2022-09-09T10:04:12;4.77;;;1.90;;
60432;SDS011;46286;48.098;11.590;2022-09-09T10:06:38;3.65;;;1.70;;
60432;SDS011;46286;48.098;11.590;2022-09-09T10:12:03;3.25;;;1.77;;
60432;SDS011;46286;48.098;11.590;2022-09-09T10:40:43;2.90;;;1.75;;
60432;SDS011;46286;48.098;11.590;2022-09-09T10:48:19;4.32;;;1.90;;
60432;SDS011;46286;48.098;11.590;2022-09-09T10:51:06;3.38;;;1.58;;
60432;SDS011;46286;48.098;11.590;2022-09-09T10:53:58;2.45;;;1.80;;
60432;SDS011;46286;48.098;11.590;2022-09-09T10:57:14;3.65;;;1.85;;
60432;SDS011;46286;48.098;11.590;2022-09-09T10:59:52;3.70;;;1.85;;
60432;SDS011;46286;48.098;11.590;2022-09-09T11:02:26;2.63;;;1.70;;
60432;SDS011;46286;48.098;11.590;2022-09-09T11:04:55;4.50;;;1.77;;
60432;SDS011;46286;48.098;11.590;2022-09-09T11:07:33;4.10;;;1.90;;
60432;SDS011;46286;48.098;11.590;2022-09-09T11:10:06;2.17;;;1.40;;
60432;SDS011;46286;48.098;11.590;2022-09-09T11:12:41;4.78;;;1.63;;
60432;SDS011;46286;48.098;11.590;2022-09-09T11:15:23;4.30;;;1.67;;
60432;SDS011;46286;48.098;11.590;2022-09-09T11:17:58;10.13;;;1.85;;
60432;SDS011;46286;48.098;11.590;2022-09-09T11:20:26;6.07;;;1.88;;
60432;SDS011;46286;48.098;11.590;2022-09-09T11:22:56;3.92;;;1.77;;
60432;SDS011;46286;48.098;11.590;2022-09-09T11:25:38;2.75;;;1.70;;
60432;SDS011;46286;48.098;11.590;2022-09-09T11:28:24;5.72;;;1.60;;
60432;SDS011;46286;48.098;11.590;2022-09-09T11:36:55;4.28;;;1.33;;
60432;SDS011;46286;48.098;11.590;2022-09-09T11:39:36;3.53;;;1.10;;
60432;SDS011;46286;48.098;11.590;2022-09-09T11:44:36;1.65;;;1.10;;
60432;SDS011;46286;48.098;11.590;2022-09-09T11:47:02;4.55;;;1.40;;
60432;SDS011;46286;48.098;11.590;2022-09-09T11:49:29;7.25;;;2.95;;
60432;SDS011;46286;48.098;11.590;2022-09-09T11:52:23;2.75;;;1.63;;
60432;SDS011;46286;48.098;11.590;2022-09-09T11:54:52;2.08;;;1.17;;
60432;SDS011;46286;48.098;11.590;2022-09-09T11:57:33;5.22;;;1.88;;
60432;SDS011;46286;48.098;11.590;2022-09-09T12:00:01;2.15;;;1.25;;
60432;SDS011;46286;48.098;11.590;2022-09-09T12:02:28;2.67;;;1.20;;
60432;SDS011;46286;48.098;11.590;2022-09-09T12:04:59;1.33;;;1.10;;
60432;SDS011;46286;48.098;11.590;2022-09-09T12:12:46;2.47;;;1.23;;
60432;SDS011;46286;48.098;11.590;2022-09-09T12:17:41;4.10;;;1.13;;
60432;SDS011;46286;48.098;11.590;2022-09-09T12:28:18;1.33;;;1.20;;
60432;SDS011;46286;48.098;11.590;2022-09-09T12:30:51;1.88;;;1.30;;
60432;SDS011;46286;48.098;11.590;2022-09-09T12:33:23;4.18;;;1.38;;
60432;SDS011;46286;48.098;11.590;2022-09-09T12:35:58;3.50;;;1.33;;
60432;SDS011;46286;48.098;11.590;2022-09-09T12:38:31;2.75;;;1.23;;
60432;SDS011;46286;48.098;11.590;2022-09-09T12:40:59;2.38;;;1.40;;
60432;SDS011;46286;48.098;11.590;2022-09-09T12:43:26;1.58;;;1.33;;
60432;SDS011;46286;48.098;11.590;2022-09-09T12:45:56;2.08;;;1.27;;
60432;SDS011;46286;48.098;11.590;2022-09-09T12:48:28;2.95;;;1.30;;
60432;SDS011;46286;48.098;11.590;2022-09-09T12:50:58;7.43;;;1.55;;
60432;SDS011;46286;48.098;11.590;2022-09-09T12:53:26;3.08;;;1.30;;
60432;SDS011;46286;48.098;11.590;2022-09-09T12:56:03;2.97;;;1.48;;
60432;SDS011;46286;48.098;11.590;2022-09-09T12:58:32;1.77;;;1.25;;
60432;SDS011;46286;48.098;11.590;2022-09-09T13:00:58;4.75;;;1.65;;
60432;SDS011;46286;48.098;11.590;2022-09-09T13:03:25;2.15;;;1.45;;
60432;SDS011;46286;48.098;11.590;2022-09-09T13:05:52;4.25;;;1.58;;
60432;SDS011;46286;48.098;11.590;2022-09-09T13:08:18;3.72;;;1.48;;
60432;SDS011;46286;48.098;11.590;2022-09-09T13:11:02;2.03;;;1.23;;
60432;SDS011;46286;48.098;11.590;2022-09-09T13:13:36;2.92;;;1.50;;
60432;SDS011;46286;48.098;11.590;2022-09-09T13:16:03;2.00;;;1.35;;
60432;SDS011;46286;48.098;11.590;2022-09-09T13:18:34;3.17;;;1.30;;
60432;SDS011;46286;48.098;11.590;2022-09-09T13:21:03;1.35;;;1.25;;
60432;SDS011;46286;48.098;11.590;2022-09-09T13:23:30;2.80;;;1.40;;
60432;SDS011;46286;48.098;11.590;2022-09-09T13:25:58;5.07;;;1.50;;
60432;SDS011;46286;48.098;11.590;2022-09-09T13:28:27;3.53;;;1.52;;
60432;SDS011;46286;48.098;11.590;2022-09-09T13:31:02;3.50;;;1.30;;
60432;SDS011;46286;48.098;11.590;2022-09-09T13:33:44;3.45;;;1.50;;
60432;SDS011;46286;48.098;11.590;2022-09-09T13:36:11;5.35;;;1.50;;
60432;SDS011;46286;48.098;11.590;2022-09-09T13:44:21;4.32;;;1.50;;
60432;SDS011;46286;48.098;11.590;2022-09-09T13:47:00;2.78;;;1.45;;
60432;SDS011;46286;48.098;11.590;2022-09-09T13:49:28;2.67;;;1.38;;
60432;SDS011;46286;48.098;11.590;2022-09-09T13:52:05;2.75;;;1.10;;
60432;SDS011;46286;48.098;11.590;2022-09-09T13:54:34;5.03;;;1.77;;
60432;SDS011;46286;48.098;11.590;2022-09-09T13:57:00;2.25;;;1.38;;
60432;SDS011;46286;48.098;11.590;2022-09-09T13:59:26;2.22;;;1.50;;
60432;SDS011;46286;48.098;11.590;2022-09-09T14:01:52;2.65;;;1.50;;
60432;SDS011;46286;48.098;11.590;2022-09-09T14:04:18;2.92;;;1.50;;
60432;SDS011;46286;48.098;11.590;2022-09-09T14:06:47;4.18;;;1.50;;
60432;SDS011;46286;48.098;11.590;2022-09-09T14:09:15;3.35;;;1.70;;
60432;SDS011;46286;48.098;11.590;2022-09-09T14:11:42;3.38;;;1.48;;
60432;SDS011;46286;48.098;11.590;2022-09-09T14:14:08;2.60;;;1.50;;
60432;SDS011;46286;48.098;11.590;2022-09-09T14:16:33;2.13;;;1.20;;
60432;SDS011;46286;48.098;11.590;2022-09-09T14:18:59;3.05;;;1.67;;
60432;SDS011;46286;48.098;11.590;2022-09-09T14:21:25;1.73;;;1.40;;
60432;SDS011;46286;48.098;11.590;2022-09-09T14:23:52;4.28;;;1.50;;
60432;SDS011;46286;48.098;11.590;2022-09-09T14:26:18;8.55;;;1.77;;
60432;SDS011;46286;48.098;11.590;2022-09-09T14:28:46;2.22;;;1.40;;
60432;SDS011;46286;48.098;11.590;2022-09-09T14:31:12;2.72;;;1.50;;
60432;SDS011;46286;48.098;11.590;2022-09-09T14:33:38;3.75;;;1.20;;
60432;SDS011;46286;48.098;11.590;2022-09-09T14:36:04;4.05;;;1.60;;
60432;SDS011;46286;48.098;11.590;2022-09-09T14:38:31;1.73;;;1.33;;
60432;SDS011;46286;48.098;11.590;2022-09-09T14:40:59;3.30;;;1.48;;
60432;SDS011;46286;48.098;11.590;2022-09-09T14:43:25;4.80;;;1.60;;
60432;SDS011;46286;48.098;11.590;2022-09-09T14:45:51;4.45;;;1.60;;
60432;SDS011;46286;48.098;11.590;2022-09-09T14:48:17;4.15;;;1.50;;
60432;SDS011;46286;48.098;11.590;2022-09-09T14:50:43;3.20;;;1.60;;
60432;SDS011;46286;48.098;11.590;2022-09-09T14:53:09;5.43;;;1.45;;
60432;SDS011;46286;48.098;11.590;2022-09-09T14:55:35;3.72;;;1.50;;
60432;SDS011;46286;48.098;11.590;2022-09-09T14:58:02;1.55;;;1.10;;
60432;SDS011;46286;48.098;11.590;2022-09-09T15:00:28;4.60;;;1.40;;
60432;SDS011;46286;48.098;11.590;2022-09-09T15:02:54;4.80;;;1.52;;
60432;SDS011;46286;48.098;11.590;2022-09-09T15:05:20;3.60;;;1.48;;
60432;SDS011;46286;48.098;11.590;2022-09-09T15:07:46;4.38;;;1.60;;
60432;SDS011;46286;48.098;11.590;2022-09-09T15:10:14;4.18;;;1.67;;
60432;SDS011;46286;48.098;11.590;2022-09-09T15:12:39;3.28;;;1.50;;
60432;SDS011;46286;48.098;11.590;2022-09-09T15:15:06;3.95;;;2.05;;
60432;SDS011;46286;48.098;11.590;2022-09-09T15:17:33;4.95;;;1.38;;
60432;SDS011;46286;48.098;11.590;2022-09-09T15:19:59;4.20;;;2.05;;
60432;SDS011;46286;48.098;11.590;2022-09-09T15:22:24;5.85;;;1.50;;
60432;SDS011;46286;48.098;11.590;2022-09-09T15:24:50;3.40;;;1.60;;
60432;SDS011;46286;48.098;11.590;2022-09-09T15:27:16;3.67;;;1.50;;
60432;SDS011;46286;48.098;11.590;2022-09-09T15:29:43;5.22;;;1.38;;
60432;SDS011;46286;48.098;11.590;2022-09-09T15:32:09;4.88;;;1.70;;
60432;SDS011;46286;48.098;11.590;2022-09-09T15:34:35;7.65;;;1.90;;
60432;SDS011;46286;48.098;11.590;2022-09-09T15:37:00;4.28;;;1.75;;
60432;SDS011;46286;48.098;11.590;2022-09-09T15:39:26;5.00;;;1.60;;
60432;SDS011;46286;48.098;11.590;2022-09-09T15:41:51;7.65;;;1.70;;
60432;SDS011;46286;48.098;11.590;2022-09-09T15:44:18;6.13;;;1.52;;
60432;SDS011;46286;48.098;11.590;2022-09-09T15:46:51;5.60;;;1.40;;
60432;SDS011;46286;48.098;11.590;2022-09-09T15:49:22;3.55;;;1.60;;
60432;SDS011;46286;48.098;11.590;2022-09-09T15:51:57;5.05;;;1.88;;
60432;SDS011;46286;48.098;11.590;2022-09-09T15:54:30;8.23;;;1.83;;
60432;SDS011;46286;48.098;11.590;2022-09-09T15:56:58;4.50;;;1.67;;
60432;SDS011;46286;48.098;11.590;2022-09-09T15:59:26;5.78;;;1.67;;
60432;SDS011;46286;48.098;11.590;2022-09-09T16:01:54;3.20;;;1.60;;
60432;SDS011;46286;48.098;11.590;2022-09-09T16:04:20;3.78;;;1.58;;
60432;SDS011;46286;48.098;11.590;2022-09-09T16:06:50;2.85;;;1.50;;
60432;SDS011;46286;48.098;11.590;2022-09-09T16:09:20;2.92;;;1.67;;
60432;SDS011;46286;48.098;11.590;2022-09-09T16:11:46;3.33;;;1.63;;
60432;SDS011;46286;48.098;11.590;2022-09-09T16:14:13;4.72;;;1.80;;
60432;SDS011;46286;48.098;11.590;2022-09-09T16:16:40;3.95;;;1.70;;
60432;SDS011;46286;48.098;11.590;2022-09-09T16:19:07;3.55;;;1.48;;
60432;SDS011;46286;48.098;11.590;2022-09-09T16:21:39;4.57;;;1.38;;
60432;SDS011;46286;48.098;11.590;2022-09-09T16:24:08;3.05;;;1.58;;
60432;SDS011;46286;48.098;11.590;2022-09-09T16:26:35;9.77;;;1.48;;
60432;SDS011;46286;48.098;11.590;2022-09-09T16:29:02;3.05;;;1.60;;
60432;SDS011;46286;48.098;11.590;2022-09-09T16:31:29;2.95;;;1.58;;
60432;SDS011;46286;48.098;11.590;2022-09-09T16:33:56;2.47;;;1.40;;
60432;SDS011;46286;48.098;11.590;2022-09-09T16:36:26;4.28;;;1.55;;
60432;SDS011;46286;48.098;11.590;2022-09-09T16:38:59;4.65;;;1.70;;
60432;SDS011;46286;48.098;11.590;2022-09-09T16:41:27;2.65;;;1.67;;
60432;SDS011;46286;48.098;11.590;2022-09-09T16:43:58;3.80;;;1.52;;
60432;SDS011;46286;48.098;11.590;2022-09-09T16:48:55;3.38;;;1.52;;
60432;SDS011;46286;48.098;11.590;2022-09-09T16:51:22;4.18;;;1.88;;
60432;SDS011;46286;48.098;11.590;2022-09-09T16:53:51;4.35;;;1.70;;
60432;SDS011;46286;48.098;11.590;2022-09-09T16:56:19;4.22;;;2.22;;
60432;SDS011;46286;48.098;11.590;2022-09-09T16:58:50;5.07;;;1.60;;
60432;SDS011;46286;48.098;11.590;2022-09-09T17:01:39;4.78;;;1.98;;
60432;SDS011;46286;48.098;11.590;2022-09-09T17:04:10;4.15;;;1.73;;
60432;SDS011;46286;48.098;11.590;2022-09-09T17:06:38;4.50;;;1.85;;